sensor_id;sensor_type;location;lat;lon;timestamp;temperature;humidity
21678;DHT22;11000;50.360;7.582;2023-04-16T00:00:06;9.20;99.90
21678;DHT22;11000;50.360;7.582;2023-04-16T00:02:27;9.20;99.90
21678;DHT22;11000;50.360;7.582;2023-04-16T00:04:48;9.20;99.90
21678;DHT22;11000;50.360;7.582;2023-04-16T00:07:08;9.20;99.90
21678;DHT22;11000;50.360;7.582;2023-04-16T00:09:29;9.10;99.90
21678;DHT22;11000;50.360;7.582;2023-04-16T00:11:49;9.20;99.90
21678;DHT22;11000;50.360;7.582;2023-04-16T00:14:10;9.10;99.90
21678;DHT22;11000;50.360;7.582;2023-04-16T00:16:30;9.10;99.90
21678;DHT22;11000;50.360;7.582;2023-04-16T00:18:51;9.10;99.90
21678;DHT22;11000;50.360;7.582;2023-04-16T00:21:11;9.10;99.90
21678;DHT22;11000;50.360;7.582;2023-04-16T00:23:32;9.10;99.90
21678;DHT22;11000;50.360;7.582;2023-04-16T00:25:53;9.10;99.90
21678;DHT22;11000;50.360;7.582;2023-04-16T00:28:16;9.10;99.90
21678;DHT22;11000;50.360;7.582;2023-04-16T00:30:36;9.10;99.90
21678;DHT22;11000;50.360;7.582;2023-04-16T00:32:57;9.00;99.90
21678;DHT22;11000;50.360;7.582;2023-04-16T00:35:18;9.10;99.90
21678;DHT22;11000;50.360;7.582;2023-04-16T00:37:38;9.00;99.90
21678;DHT22;11000;50.360;7.582;2023-04-16T00:40:00;9.00;99.90
21678;DHT22;11000;50.360;7.582;2023-04-16T00:42:20;9.00;99.90
21678;DHT22;11000;50.360;7.582;2023-04-16T00:44:41;9.00;99.90
21678;DHT22;11000;50.360;7.582;2023-04-16T00:47:02;9.00;99.90
21678;DHT22;11000;50.360;7.582;2023-04-16T00:49:23;8.90;99.90
21678;DHT22;11000;50.360;7.582;2023-04-16T00:51:44;8.90;99.90
21678;DHT22;11000;50.360;7.582;2023-04-16T00:54:05;9.00;99.90
21678;DHT22;11000;50.360;7.582;2023-04-16T00:56:26;8.90;99.90
21678;DHT22;11000;50.360;7.582;2023-04-16T00:58:47;8.90;99.90
21678;DHT22;11000;50.360;7.582;2023-04-16T01:01:08;8.90;99.90
21678;DHT22;11000;50.360;7.582;2023-04-16T01:03:37;8.90;99.90
21678;DHT22;11000;50.360;7.582;2023-04-16T01:06:01;8.90;99.90
21678;DHT22;11000;50.360;7.582;2023-04-16T01:08:21;8.90;99.90
21678;DHT22;11000;50.360;7.582;2023-04-16T01:10:42;8.90;99.90
21678;DHT22;11000;50.360;7.582;2023-04-16T01:13:03;8.90;99.90
21678;DHT22;11000;50.360;7.582;2023-04-16T01:15:23;8.80;99.90
21678;DHT22;11000;50.360;7.582;2023-04-16T01:17:47;8.90;99.90
21678;DHT22;11000;50.360;7.582;2023-04-16T01:20:08;8.80;99.90
21678;DHT22;11000;50.360;7.582;2023-04-16T01:22:28;8.80;99.90
21678;DHT22;11000;50.360;7.582;2023-04-16T01:24:49;8.80;99.90
21678;DHT22;11000;50.360;7.582;2023-04-16T01:27:09;8.80;99.90
21678;DHT22;11000;50.360;7.582;2023-04-16T01:29:30;8.80;99.90
21678;DHT22;11000;50.360;7.582;2023-04-16T01:31:51;8.80;99.90
21678;DHT22;11000;50.360;7.582;2023-04-16T01:34:11;8.80;99.90
21678;DHT22;11000;50.360;7.582;2023-04-16T01:36:32;8.80;99.90
21678;DHT22;11000;50.360;7.582;2023-04-16T01:38:52;8.80;99.90
21678;DHT22;11000;50.360;7.582;2023-04-16T01:41:13;8.70;99.90
21678;DHT22;11000;50.360;7.582;2023-04-16T01:43:33;8.70;99.90
21678;DHT22;11000;50.360;7.582;2023-04-16T01:46:11;8.70;99.90
21678;DHT22;11000;50.360;7.582;2023-04-16T01:48:32;8.70;99.90
21678;DHT22;11000;50.360;7.582;2023-04-16T01:50:52;8.70;99.90
21678;DHT22;11000;50.360;7.582;2023-04-16T01:53:13;8.80;99.90
21678;DHT22;11000;50.360;7.582;2023-04-16T01:55:33;8.80;99.90
21678;DHT22;11000;50.360;7.582;2023-04-16T01:57:54;8.70;99.90
21678;DHT22;11000;50.360;7.582;2023-04-16T02:00:14;8.80;99.90
21678;DHT22;11000;50.360;7.582;2023-04-16T02:02:35;8.80;99.90
21678;DHT22;11000;50.360;7.582;2023-04-16T02:04:56;8.70;99.90
21678;DHT22;11000;50.360;7.582;2023-04-16T02:07:16;8.70;99.90
21678;DHT22;11000;50.360;7.582;2023-04-16T02:09:39;8.70;99.90
21678;DHT22;11000;50.360;7.582;2023-04-16T02:12:00;8.70;99.90
21678;DHT22;11000;50.360;7.582;2023-04-16T02:14:22;8.70;99.90
21678;DHT22;11000;50.360;7.582;2023-04-16T02:16:44;8.70;99.90
21678;DHT22;11000;50.360;7.582;2023-04-16T02:19:05;8.70;99.90
21678;DHT22;11000;50.360;7.582;2023-04-16T02:21:26;8.70;99.90
21678;DHT22;11000;50.360;7.582;2023-04-16T02:23:46;8.70;99.90
21678;DHT22;11000;50.360;7.582;2023-04-16T02:26:10;8.70;99.90
21678;DHT22;11000;50.360;7.582;2023-04-16T02:28:32;8.70;99.90
21678;DHT22;11000;50.360;7.582;2023-04-16T02:30:53;8.70;99.90
21678;DHT22;11000;50.360;7.582;2023-04-16T02:33:13;8.70;99.90
21678;DHT22;11000;50.360;7.582;2023-04-16T02:35:34;8.70;99.90
21678;DHT22;11000;50.360;7.582;2023-04-16T02:37:55;8.70;99.90
21678;DHT22;11000;50.360;7.582;2023-04-16T02:40:16;8.60;99.90
21678;DHT22;11000;50.360;7.582;2023-04-16T02:42:36;8.60;99.90
21678;DHT22;11000;50.360;7.582;2023-04-16T02:44:57;8.60;99.90
21678;DHT22;11000;50.360;7.582;2023-04-16T02:47:17;8.60;99.90
21678;DHT22;11000;50.360;7.582;2023-04-16T02:49:38;8.60;99.90
21678;DHT22;11000;50.360;7.582;2023-04-16T02:51:58;8.60;99.90
21678;DHT22;11000;50.360;7.582;2023-04-16T02:54:19;8.60;99.90
21678;DHT22;11000;50.360;7.582;2023-04-16T02:56:39;8.60;99.90
21678;DHT22;11000;50.360;7.582;2023-04-16T02:58:59;8.60;99.90
21678;DHT22;11000;50.360;7.582;2023-04-16T03:01:20;8.60;99.90
21678;DHT22;11000;50.360;7.582;2023-04-16T03:03:40;8.60;99.90
21678;DHT22;11000;50.360;7.582;2023-04-16T03:06:01;8.60;99.90
21678;DHT22;11000;50.360;7.582;2023-04-16T03:08:21;8.60;99.90
21678;DHT22;11000;50.360;7.582;2023-04-16T03:10:42;8.60;99.90
21678;DHT22;11000;50.360;7.582;2023-04-16T03:13:03;8.60;99.90
21678;DHT22;11000;50.360;7.582;2023-04-16T03:15:24;8.60;99.90
21678;DHT22;11000;50.360;7.582;2023-04-16T03:17:44;8.60;99.90
21678;DHT22;11000;50.360;7.582;2023-04-16T03:20:05;8.60;99.90
21678;DHT22;11000;50.360;7.582;2023-04-16T03:22:26;8.60;99.90
21678;DHT22;11000;50.360;7.582;2023-04-16T03:24:47;8.60;99.90
21678;DHT22;11000;50.360;7.582;2023-04-16T03:27:07;8.60;99.90
21678;DHT22;11000;50.360;7.582;2023-04-16T03:29:28;8.60;99.90
21678;DHT22;11000;50.360;7.582;2023-04-16T03:31:48;8.60;99.90
21678;DHT22;11000;50.360;7.582;2023-04-16T03:34:08;8.60;99.90
21678;DHT22;11000;50.360;7.582;2023-04-16T03:36:30;8.60;99.90
21678;DHT22;11000;50.360;7.582;2023-04-16T03:38:50;8.60;99.90
21678;DHT22;11000;50.360;7.582;2023-04-16T03:41:11;8.60;99.90
21678;DHT22;11000;50.360;7.582;2023-04-16T03:43:31;8.60;99.90
21678;DHT22;11000;50.360;7.582;2023-04-16T03:45:52;8.60;99.90
21678;DHT22;11000;50.360;7.582;2023-04-16T03:48:12;8.70;99.90
21678;DHT22;11000;50.360;7.582;2023-04-16T03:50:33;8.60;99.90
21678;DHT22;11000;50.360;7.582;2023-04-16T03:52:53;8.60;99.90
21678;DHT22;11000;50.360;7.582;2023-04-16T03:55:14;8.60;99.90
21678;DHT22;11000;50.360;7.582;2023-04-16T03:57:35;8.60;99.90
21678;DHT22;11000;50.360;7.582;2023-04-16T03:59:55;8.60;99.90
21678;DHT22;11000;50.360;7.582;2023-04-16T04:02:16;8.60;99.90
21678;DHT22;11000;50.360;7.582;2023-04-16T04:04:36;8.60;99.90
21678;DHT22;11000;50.360;7.582;2023-04-16T04:06:57;8.60;99.90
21678;DHT22;11000;50.360;7.582;2023-04-16T04:09:17;8.60;99.90
21678;DHT22;11000;50.360;7.582;2023-04-16T04:11:37;8.60;99.90
21678;DHT22;11000;50.360;7.582;2023-04-16T04:13:58;8.70;99.90
21678;DHT22;11000;50.360;7.582;2023-04-16T04:16:18;8.70;99.90
21678;DHT22;11000;50.360;7.582;2023-04-16T04:18:39;8.70;99.90
21678;DHT22;11000;50.360;7.582;2023-04-16T04:21:04;8.70;99.90
21678;DHT22;11000;50.360;7.582;2023-04-16T04:23:25;8.70;99.90
21678;DHT22;11000;50.360;7.582;2023-04-16T04:25:45;8.70;99.90
21678;DHT22;11000;50.360;7.582;2023-04-16T04:28:06;8.70;99.90
21678;DHT22;11000;50.360;7.582;2023-04-16T04:30:26;8.70;99.90
21678;DHT22;11000;50.360;7.582;2023-04-16T04:32:47;8.70;99.90
21678;DHT22;11000;50.360;7.582;2023-04-16T04:35:08;8.70;99.90
21678;DHT22;11000;50.360;7.582;2023-04-16T04:37:28;8.70;99.90
21678;DHT22;11000;50.360;7.582;2023-04-16T04:39:49;8.80;99.90
21678;DHT22;11000;50.360;7.582;2023-04-16T04:42:09;8.80;99.90
21678;DHT22;11000;50.360;7.582;2023-04-16T04:44:30;8.80;99.90
21678;DHT22;11000;50.360;7.582;2023-04-16T04:46:50;8.80;99.90
21678;DHT22;11000;50.360;7.582;2023-04-16T04:49:11;8.80;99.90
21678;DHT22;11000;50.360;7.582;2023-04-16T04:51:32;8.80;99.90
21678;DHT22;11000;50.360;7.582;2023-04-16T04:53:52;8.80;99.90
21678;DHT22;11000;50.360;7.582;2023-04-16T04:56:13;8.80;99.90
21678;DHT22;11000;50.360;7.582;2023-04-16T04:58:33;8.80;99.90
21678;DHT22;11000;50.360;7.582;2023-04-16T05:00:54;8.80;99.90
21678;DHT22;11000;50.360;7.582;2023-04-16T05:03:19;8.80;99.90
21678;DHT22;11000;50.360;7.582;2023-04-16T05:05:39;8.80;99.90
21678;DHT22;11000;50.360;7.582;2023-04-16T05:08:00;8.80;99.90
21678;DHT22;11000;50.360;7.582;2023-04-16T05:10:21;8.80;99.90
21678;DHT22;11000;50.360;7.582;2023-04-16T05:12:41;8.90;99.90
21678;DHT22;11000;50.360;7.582;2023-04-16T05:15:02;8.80;99.90
21678;DHT22;11000;50.360;7.582;2023-04-16T05:17:22;8.80;99.90
21678;DHT22;11000;50.360;7.582;2023-04-16T05:19:43;8.80;99.90
21678;DHT22;11000;50.360;7.582;2023-04-16T05:22:03;8.80;99.90
21678;DHT22;11000;50.360;7.582;2023-04-16T05:24:24;8.80;99.90
21678;DHT22;11000;50.360;7.582;2023-04-16T05:26:45;8.80;99.90
21678;DHT22;11000;50.360;7.582;2023-04-16T05:29:05;8.80;99.90
21678;DHT22;11000;50.360;7.582;2023-04-16T05:31:26;8.80;99.90
21678;DHT22;11000;50.360;7.582;2023-04-16T05:33:46;8.80;99.90
21678;DHT22;11000;50.360;7.582;2023-04-16T05:36:07;8.80;99.90
21678;DHT22;11000;50.360;7.582;2023-04-16T05:38:27;8.80;99.90
21678;DHT22;11000;50.360;7.582;2023-04-16T05:40:48;8.80;99.90
21678;DHT22;11000;50.360;7.582;2023-04-16T05:43:08;8.80;99.90
21678;DHT22;11000;50.360;7.582;2023-04-16T05:45:29;8.90;99.90
21678;DHT22;11000;50.360;7.582;2023-04-16T05:47:52;8.80;99.90
21678;DHT22;11000;50.360;7.582;2023-04-16T05:50:13;8.90;99.90
21678;DHT22;11000;50.360;7.582;2023-04-16T05:52:37;8.90;99.90
21678;DHT22;11000;50.360;7.582;2023-04-16T05:54:57;8.90;99.90
21678;DHT22;11000;50.360;7.582;2023-04-16T05:57:20;8.90;99.90
21678;DHT22;11000;50.360;7.582;2023-04-16T05:59:41;8.80;99.90
21678;DHT22;11000;50.360;7.582;2023-04-16T06:02:01;8.90;99.90
21678;DHT22;11000;50.360;7.582;2023-04-16T06:04:25;8.90;99.90
21678;DHT22;11000;50.360;7.582;2023-04-16T06:06:45;9.00;99.90
21678;DHT22;11000;50.360;7.582;2023-04-16T06:09:06;9.00;99.90
21678;DHT22;11000;50.360;7.582;2023-04-16T06:11:26;9.00;99.90
21678;DHT22;11000;50.360;7.582;2023-04-16T06:13:48;9.00;99.90
21678;DHT22;11000;50.360;7.582;2023-04-16T06:16:09;9.00;99.90
21678;DHT22;11000;50.360;7.582;2023-04-16T06:18:29;9.00;99.90
21678;DHT22;11000;50.360;7.582;2023-04-16T06:20:50;9.00;99.90
21678;DHT22;11000;50.360;7.582;2023-04-16T06:23:10;9.10;99.90
21678;DHT22;11000;50.360;7.582;2023-04-16T06:25:31;9.10;99.90
21678;DHT22;11000;50.360;7.582;2023-04-16T06:27:51;9.10;99.90
21678;DHT22;11000;50.360;7.582;2023-04-16T06:30:13;9.10;99.90
21678;DHT22;11000;50.360;7.582;2023-04-16T06:32:34;9.10;99.90
21678;DHT22;11000;50.360;7.582;2023-04-16T06:34:55;9.20;99.90
21678;DHT22;11000;50.360;7.582;2023-04-16T06:37:17;9.10;99.90
21678;DHT22;11000;50.360;7.582;2023-04-16T06:39:38;9.10;99.90
21678;DHT22;11000;50.360;7.582;2023-04-16T06:41:59;9.10;99.90
21678;DHT22;11000;50.360;7.582;2023-04-16T06:44:20;9.20;99.90
21678;DHT22;11000;50.360;7.582;2023-04-16T06:46:41;9.10;99.90
21678;DHT22;11000;50.360;7.582;2023-04-16T06:49:01;9.10;99.90
21678;DHT22;11000;50.360;7.582;2023-04-16T06:51:24;9.10;99.90
21678;DHT22;11000;50.360;7.582;2023-04-16T06:53:45;9.20;99.90
21678;DHT22;11000;50.360;7.582;2023-04-16T06:56:06;9.10;99.90
21678;DHT22;11000;50.360;7.582;2023-04-16T06:58:29;9.10;99.90
21678;DHT22;11000;50.360;7.582;2023-04-16T07:00:50;9.10;99.90
21678;DHT22;11000;50.360;7.582;2023-04-16T07:03:10;9.20;99.90
21678;DHT22;11000;50.360;7.582;2023-04-16T07:05:31;9.20;99.90
21678;DHT22;11000;50.360;7.582;2023-04-16T07:07:51;9.20;99.90
21678;DHT22;11000;50.360;7.582;2023-04-16T07:10:12;9.20;99.90
21678;DHT22;11000;50.360;7.582;2023-04-16T07:12:35;9.20;99.90
21678;DHT22;11000;50.360;7.582;2023-04-16T07:14:55;9.20;99.90
21678;DHT22;11000;50.360;7.582;2023-04-16T07:17:16;9.20;99.90
21678;DHT22;11000;50.360;7.582;2023-04-16T07:19:40;9.20;99.90
21678;DHT22;11000;50.360;7.582;2023-04-16T07:22:01;9.20;99.90
21678;DHT22;11000;50.360;7.582;2023-04-16T07:24:21;9.10;99.90
21678;DHT22;11000;50.360;7.582;2023-04-16T07:26:42;9.10;99.90
21678;DHT22;11000;50.360;7.582;2023-04-16T07:29:05;9.00;99.90
21678;DHT22;11000;50.360;7.582;2023-04-16T07:31:26;9.10;99.90
21678;DHT22;11000;50.360;7.582;2023-04-16T07:33:49;9.10;99.90
21678;DHT22;11000;50.360;7.582;2023-04-16T07:36:10;9.20;99.90
21678;DHT22;11000;50.360;7.582;2023-04-16T07:38:31;9.20;99.90
21678;DHT22;11000;50.360;7.582;2023-04-16T07:40:51;9.10;99.90
21678;DHT22;11000;50.360;7.582;2023-04-16T07:43:13;9.20;99.90
21678;DHT22;11000;50.360;7.582;2023-04-16T07:45:35;9.20;99.90
21678;DHT22;11000;50.360;7.582;2023-04-16T07:47:56;9.30;99.90
21678;DHT22;11000;50.360;7.582;2023-04-16T07:50:16;9.30;99.90
21678;DHT22;11000;50.360;7.582;2023-04-16T07:52:38;9.40;99.90
21678;DHT22;11000;50.360;7.582;2023-04-16T07:55:00;9.30;99.90
21678;DHT22;11000;50.360;7.582;2023-04-16T07:57:21;9.30;99.90
21678;DHT22;11000;50.360;7.582;2023-04-16T07:59:41;9.40;99.90
21678;DHT22;11000;50.360;7.582;2023-04-16T08:02:03;9.40;99.90
21678;DHT22;11000;50.360;7.582;2023-04-16T08:04:24;9.40;99.90
21678;DHT22;11000;50.360;7.582;2023-04-16T08:06:44;9.40;99.90
21678;DHT22;11000;50.360;7.582;2023-04-16T08:09:05;9.40;99.90
21678;DHT22;11000;50.360;7.582;2023-04-16T08:11:26;9.50;99.90
21678;DHT22;11000;50.360;7.582;2023-04-16T08:13:46;9.50;99.90
21678;DHT22;11000;50.360;7.582;2023-04-16T08:16:07;9.50;99.90
21678;DHT22;11000;50.360;7.582;2023-04-16T08:18:27;9.50;99.90
21678;DHT22;11000;50.360;7.582;2023-04-16T08:20:48;9.50;99.90
21678;DHT22;11000;50.360;7.582;2023-04-16T08:23:08;9.50;99.90
21678;DHT22;11000;50.360;7.582;2023-04-16T08:25:29;9.50;99.90
21678;DHT22;11000;50.360;7.582;2023-04-16T08:27:50;9.50;99.90
21678;DHT22;11000;50.360;7.582;2023-04-16T08:30:10;9.50;99.90
21678;DHT22;11000;50.360;7.582;2023-04-16T08:32:32;9.50;99.90
21678;DHT22;11000;50.360;7.582;2023-04-16T08:34:53;9.50;99.90
21678;DHT22;11000;50.360;7.582;2023-04-16T08:37:14;9.50;99.90
21678;DHT22;11000;50.360;7.582;2023-04-16T08:39:34;9.60;99.90
21678;DHT22;11000;50.360;7.582;2023-04-16T08:41:56;9.60;99.90
21678;DHT22;11000;50.360;7.582;2023-04-16T08:44:25;9.60;99.90
21678;DHT22;11000;50.360;7.582;2023-04-16T08:46:46;9.60;99.90
21678;DHT22;11000;50.360;7.582;2023-04-16T08:49:07;9.70;99.90
21678;DHT22;11000;50.360;7.582;2023-04-16T08:51:29;9.70;99.90
21678;DHT22;11000;50.360;7.582;2023-04-16T08:53:56;9.60;99.90
21678;DHT22;11000;50.360;7.582;2023-04-16T08:56:21;9.60;99.90
21678;DHT22;11000;50.360;7.582;2023-04-16T08:58:42;9.70;99.90
21678;DHT22;11000;50.360;7.582;2023-04-16T09:01:05;9.60;99.90
21678;DHT22;11000;50.360;7.582;2023-04-16T09:03:31;9.60;99.90
21678;DHT22;11000;50.360;7.582;2023-04-16T09:05:52;9.70;99.90
21678;DHT22;11000;50.360;7.582;2023-04-16T09:08:15;9.70;99.90
21678;DHT22;11000;50.360;7.582;2023-04-16T09:10:36;9.70;99.90
21678;DHT22;11000;50.360;7.582;2023-04-16T09:12:57;9.70;99.90
21678;DHT22;11000;50.360;7.582;2023-04-16T09:15:19;9.70;99.90
21678;DHT22;11000;50.360;7.582;2023-04-16T09:17:40;9.80;99.90
21678;DHT22;11000;50.360;7.582;2023-04-16T09:20:02;9.80;99.90
21678;DHT22;11000;50.360;7.582;2023-04-16T09:22:25;9.80;99.90
21678;DHT22;11000;50.360;7.582;2023-04-16T09:24:45;9.80;99.90
21678;DHT22;11000;50.360;7.582;2023-04-16T09:27:07;9.80;99.90
21678;DHT22;11000;50.360;7.582;2023-04-16T09:29:39;9.80;99.90
21678;DHT22;11000;50.360;7.582;2023-04-16T09:32:01;9.70;99.90
21678;DHT22;11000;50.360;7.582;2023-04-16T09:34:23;9.80;99.90
21678;DHT22;11000;50.360;7.582;2023-04-16T09:36:44;9.80;99.90
21678;DHT22;11000;50.360;7.582;2023-04-16T09:39:04;9.80;99.90
21678;DHT22;11000;50.360;7.582;2023-04-16T09:41:27;9.80;99.90
21678;DHT22;11000;50.360;7.582;2023-04-16T09:46:17;9.90;99.90
21678;DHT22;11000;50.360;7.582;2023-04-16T09:48:37;9.90;99.90
21678;DHT22;11000;50.360;7.582;2023-04-16T09:50:59;10.00;99.90
21678;DHT22;11000;50.360;7.582;2023-04-16T09:53:23;10.00;99.90
21678;DHT22;11000;50.360;7.582;2023-04-16T09:55:45;10.00;99.90
21678;DHT22;11000;50.360;7.582;2023-04-16T09:58:06;10.10;99.90
21678;DHT22;11000;50.360;7.582;2023-04-16T10:00:28;10.20;99.90
21678;DHT22;11000;50.360;7.582;2023-04-16T10:03:02;10.20;99.90
21678;DHT22;11000;50.360;7.582;2023-04-16T10:05:25;10.20;99.90
21678;DHT22;11000;50.360;7.582;2023-04-16T10:07:45;10.20;99.90
21678;DHT22;11000;50.360;7.582;2023-04-16T10:10:08;10.20;99.90
21678;DHT22;11000;50.360;7.582;2023-04-16T10:12:29;10.30;99.90
21678;DHT22;11000;50.360;7.582;2023-04-16T10:14:52;10.40;99.90
21678;DHT22;11000;50.360;7.582;2023-04-16T10:17:12;10.40;99.90
21678;DHT22;11000;50.360;7.582;2023-04-16T10:19:33;10.50;99.90
21678;DHT22;11000;50.360;7.582;2023-04-16T10:21:56;10.50;99.90
21678;DHT22;11000;50.360;7.582;2023-04-16T10:24:17;10.60;99.90
21678;DHT22;11000;50.360;7.582;2023-04-16T10:26:39;10.80;99.90
21678;DHT22;11000;50.360;7.582;2023-04-16T10:29:01;10.80;99.90
21678;DHT22;11000;50.360;7.582;2023-04-16T10:31:22;10.90;99.90
21678;DHT22;11000;50.360;7.582;2023-04-16T10:33:43;10.90;99.90
21678;DHT22;11000;50.360;7.582;2023-04-16T10:36:08;11.00;99.90
21678;DHT22;11000;50.360;7.582;2023-04-16T10:38:29;10.90;99.90
21678;DHT22;11000;50.360;7.582;2023-04-16T10:40:49;10.90;99.90
21678;DHT22;11000;50.360;7.582;2023-04-16T10:43:16;11.00;99.90
21678;DHT22;11000;50.360;7.582;2023-04-16T10:45:37;10.90;99.90
21678;DHT22;11000;50.360;7.582;2023-04-16T10:48:05;11.00;99.90
21678;DHT22;11000;50.360;7.582;2023-04-16T10:50:33;11.10;99.90
21678;DHT22;11000;50.360;7.582;2023-04-16T10:53:19;11.30;99.90
21678;DHT22;11000;50.360;7.582;2023-04-16T10:55:55;11.30;99.90
21678;DHT22;11000;50.360;7.582;2023-04-16T10:58:29;11.40;99.90
21678;DHT22;11000;50.360;7.582;2023-04-16T11:00:51;11.40;99.90
21678;DHT22;11000;50.360;7.582;2023-04-16T11:03:12;11.50;99.90
21678;DHT22;11000;50.360;7.582;2023-04-16T11:06:11;11.50;99.90
21678;DHT22;11000;50.360;7.582;2023-04-16T11:08:32;11.60;99.90
21678;DHT22;11000;50.360;7.582;2023-04-16T11:10:53;11.70;99.90
21678;DHT22;11000;50.360;7.582;2023-04-16T11:13:14;11.80;99.90
21678;DHT22;11000;50.360;7.582;2023-04-16T11:15:36;11.80;99.90
21678;DHT22;11000;50.360;7.582;2023-04-16T11:17:56;11.80;99.90
21678;DHT22;11000;50.360;7.582;2023-04-16T11:20:27;11.70;99.90
21678;DHT22;11000;50.360;7.582;2023-04-16T11:22:49;11.50;99.90
21678;DHT22;11000;50.360;7.582;2023-04-16T11:25:09;11.60;99.90
21678;DHT22;11000;50.360;7.582;2023-04-16T11:27:30;11.50;99.90
21678;DHT22;11000;50.360;7.582;2023-04-16T11:29:59;11.50;99.90
21678;DHT22;11000;50.360;7.582;2023-04-16T11:32:20;11.50;99.90
21678;DHT22;11000;50.360;7.582;2023-04-16T11:34:45;11.50;99.90
21678;DHT22;11000;50.360;7.582;2023-04-16T11:37:06;11.50;99.90
21678;DHT22;11000;50.360;7.582;2023-04-16T11:39:27;11.60;99.90
21678;DHT22;11000;50.360;7.582;2023-04-16T11:41:49;11.50;99.90
21678;DHT22;11000;50.360;7.582;2023-04-16T11:46:38;11.60;99.90
21678;DHT22;11000;50.360;7.582;2023-04-16T11:48:59;11.50;99.90
21678;DHT22;11000;50.360;7.582;2023-04-16T11:51:20;11.60;99.90
21678;DHT22;11000;50.360;7.582;2023-04-16T11:53:49;11.70;99.90
21678;DHT22;11000;50.360;7.582;2023-04-16T11:56:13;11.60;99.90
21678;DHT22;11000;50.360;7.582;2023-04-16T11:58:34;11.70;99.90
21678;DHT22;11000;50.360;7.582;2023-04-16T12:00:54;11.70;99.90
21678;DHT22;11000;50.360;7.582;2023-04-16T12:03:36;11.80;99.90
21678;DHT22;11000;50.360;7.582;2023-04-16T12:06:07;11.90;99.90
21678;DHT22;11000;50.360;7.582;2023-04-16T12:08:29;11.90;99.90
21678;DHT22;11000;50.360;7.582;2023-04-16T12:10:53;11.90;99.90
21678;DHT22;11000;50.360;7.582;2023-04-16T12:13:17;12.00;99.90
21678;DHT22;11000;50.360;7.582;2023-04-16T12:15:46;12.00;99.90
21678;DHT22;11000;50.360;7.582;2023-04-16T12:18:07;12.10;99.90
21678;DHT22;11000;50.360;7.582;2023-04-16T12:20:38;12.20;99.90
21678;DHT22;11000;50.360;7.582;2023-04-16T12:23:00;12.30;99.90
21678;DHT22;11000;50.360;7.582;2023-04-16T12:25:23;12.30;99.90
21678;DHT22;11000;50.360;7.582;2023-04-16T12:27:51;12.20;99.90
21678;DHT22;11000;50.360;7.582;2023-04-16T12:30:13;12.30;99.90
21678;DHT22;11000;50.360;7.582;2023-04-16T12:32:33;12.30;99.90
21678;DHT22;11000;50.360;7.582;2023-04-16T12:34:54;12.40;99.90
21678;DHT22;11000;50.360;7.582;2023-04-16T12:37:14;12.50;99.90
21678;DHT22;11000;50.360;7.582;2023-04-16T12:39:35;12.50;99.90
21678;DHT22;11000;50.360;7.582;2023-04-16T12:41:56;12.40;99.90
21678;DHT22;11000;50.360;7.582;2023-04-16T12:44:16;12.40;99.90
21678;DHT22;11000;50.360;7.582;2023-04-16T12:46:38;12.50;99.90
21678;DHT22;11000;50.360;7.582;2023-04-16T12:48:59;12.50;99.90
21678;DHT22;11000;50.360;7.582;2023-04-16T12:51:19;12.60;99.90
21678;DHT22;11000;50.360;7.582;2023-04-16T12:53:40;12.70;99.90
21678;DHT22;11000;50.360;7.582;2023-04-16T12:56:01;12.60;99.90
21678;DHT22;11000;50.360;7.582;2023-04-16T12:58:21;12.70;99.90
21678;DHT22;11000;50.360;7.582;2023-04-16T13:00:42;13.00;99.90
21678;DHT22;11000;50.360;7.582;2023-04-16T13:03:03;13.20;99.90
21678;DHT22;11000;50.360;7.582;2023-04-16T13:05:23;13.30;99.90
21678;DHT22;11000;50.360;7.582;2023-04-16T13:07:44;13.60;99.90
21678;DHT22;11000;50.360;7.582;2023-04-16T13:10:05;13.60;99.90
21678;DHT22;11000;50.360;7.582;2023-04-16T13:12:26;13.60;99.90
21678;DHT22;11000;50.360;7.582;2023-04-16T13:14:47;13.60;99.90
21678;DHT22;11000;50.360;7.582;2023-04-16T13:17:08;13.50;99.90
21678;DHT22;11000;50.360;7.582;2023-04-16T13:19:29;13.80;99.90
21678;DHT22;11000;50.360;7.582;2023-04-16T13:21:50;13.80;99.90
21678;DHT22;11000;50.360;7.582;2023-04-16T13:24:11;13.90;99.90
21678;DHT22;11000;50.360;7.582;2023-04-16T13:26:31;13.80;99.90
21678;DHT22;11000;50.360;7.582;2023-04-16T13:28:52;13.60;99.90
21678;DHT22;11000;50.360;7.582;2023-04-16T13:31:13;13.50;99.90
21678;DHT22;11000;50.360;7.582;2023-04-16T13:33:35;13.50;99.90
21678;DHT22;11000;50.360;7.582;2023-04-16T13:35:55;13.30;99.90
21678;DHT22;11000;50.360;7.582;2023-04-16T13:38:16;13.20;99.90
21678;DHT22;11000;50.360;7.582;2023-04-16T13:40:37;13.20;99.90
21678;DHT22;11000;50.360;7.582;2023-04-16T13:42:57;13.30;99.90
21678;DHT22;11000;50.360;7.582;2023-04-16T13:45:18;13.40;99.90
21678;DHT22;11000;50.360;7.582;2023-04-16T13:47:40;13.40;99.90
21678;DHT22;11000;50.360;7.582;2023-04-16T13:50:03;13.30;99.90
21678;DHT22;11000;50.360;7.582;2023-04-16T13:52:24;13.30;99.90
21678;DHT22;11000;50.360;7.582;2023-04-16T13:54:44;13.20;99.90
21678;DHT22;11000;50.360;7.582;2023-04-16T13:57:05;13.30;99.90
21678;DHT22;11000;50.360;7.582;2023-04-16T13:59:26;13.40;99.90
21678;DHT22;11000;50.360;7.582;2023-04-16T14:01:46;13.40;99.90
21678;DHT22;11000;50.360;7.582;2023-04-16T14:04:07;13.50;99.90
21678;DHT22;11000;50.360;7.582;2023-04-16T14:06:27;13.50;99.90
21678;DHT22;11000;50.360;7.582;2023-04-16T14:08:48;13.50;99.90
21678;DHT22;11000;50.360;7.582;2023-04-16T14:11:08;13.50;99.90
21678;DHT22;11000;50.360;7.582;2023-04-16T14:13:29;13.40;99.90
21678;DHT22;11000;50.360;7.582;2023-04-16T14:15:52;13.60;99.90
21678;DHT22;11000;50.360;7.582;2023-04-16T14:18:12;13.80;99.90
21678;DHT22;11000;50.360;7.582;2023-04-16T14:20:33;14.00;99.90
21678;DHT22;11000;50.360;7.582;2023-04-16T14:22:53;14.50;99.90
21678;DHT22;11000;50.360;7.582;2023-04-16T14:25:14;14.60;99.90
21678;DHT22;11000;50.360;7.582;2023-04-16T14:27:34;15.00;99.90
21678;DHT22;11000;50.360;7.582;2023-04-16T14:29:55;15.00;99.90
21678;DHT22;11000;50.360;7.582;2023-04-16T14:32:15;15.00;99.90
21678;DHT22;11000;50.360;7.582;2023-04-16T14:34:36;14.80;99.90
21678;DHT22;11000;50.360;7.582;2023-04-16T14:36:56;14.70;99.90
21678;DHT22;11000;50.360;7.582;2023-04-16T14:39:17;14.60;99.90
21678;DHT22;11000;50.360;7.582;2023-04-16T14:41:38;14.50;99.90
21678;DHT22;11000;50.360;7.582;2023-04-16T14:43:58;14.40;99.90
21678;DHT22;11000;50.360;7.582;2023-04-16T14:46:19;14.50;99.90
21678;DHT22;11000;50.360;7.582;2023-04-16T14:48:39;14.30;99.90
21678;DHT22;11000;50.360;7.582;2023-04-16T14:51:00;14.10;99.90
21678;DHT22;11000;50.360;7.582;2023-04-16T14:53:22;14.00;99.90
21678;DHT22;11000;50.360;7.582;2023-04-16T14:55:43;13.80;99.90
21678;DHT22;11000;50.360;7.582;2023-04-16T14:58:03;13.80;99.90
21678;DHT22;11000;50.360;7.582;2023-04-16T15:00:24;13.80;99.90
21678;DHT22;11000;50.360;7.582;2023-04-16T15:02:44;13.80;99.90
21678;DHT22;11000;50.360;7.582;2023-04-16T15:05:07;13.70;99.90
21678;DHT22;11000;50.360;7.582;2023-04-16T15:07:30;13.70;99.90